Time;durP1;ratioP1;P1;durP2;ratioP2;P2;SDS_P1;SDS_P2;PMS_P1;PMS_P2;Temp;Humidity;BMP_temperature;BMP_pressure;BME280_temperature;BME280_humidity;BME280_pressure;Samples;Min_cycle;Max_cycle;Signal;HPM_P1;HPM_P2
2023/05/29 00:01:08;;;;;;;7.73;3.87;;;;;;;21.91;43.24;102208.78;5013393;28;20957;-71
2023/05/29 00:03:34;;;;;;;6.57;3.70;;;;;;;21.89;43.62;102208.06;5008541;28;20283;-72
2023/05/29 00:06:02;;;;;;;5.80;3.28;;;;;;;21.88;43.43;102208.19;5002711;28;20073;-70
2023/05/29 00:08:27;;;;;;;8.55;4.15;;;;;;;21.89;43.48;102213.38;5020587;28;20025;-70
2023/05/29 00:10:53;;;;;;;7.38;3.80;;;;;;;21.91;43.17;102222.06;5004858;28;20037;-71
2023/05/29 00:13:18;;;;;;;6.50;3.90;;;;;;;21.88;43.28;102222.28;5015137;28;20401;-70
2023/05/29 00:15:43;;;;;;;6.50;3.47;;;;;;;21.89;43.67;102217.84;5017468;28;20080;-73
2023/05/29 00:18:09;;;;;;;6.87;4.13;;;;;;;21.89;43.47;102221.31;5011161;28;20324;-73
2023/05/29 00:20:34;;;;;;;7.78;3.65;;;;;;;21.87;43.32;102228.56;5011486;28;20821;-70
2023/05/29 00:23:01;;;;;;;6.07;3.20;;;;;;;21.87;43.15;102225.91;5001127;28;20140;-70
2023/05/29 00:25:27;;;;;;;6.13;3.47;;;;;;;21.88;43.06;102221.44;5023464;28;20034;-71
2023/05/29 00:27:52;;;;;;;6.80;3.90;;;;;;;21.88;43.17;102221.44;5016289;28;20382;-70
2023/05/29 00:30:17;;;;;;;8.65;3.42;;;;;;;21.88;43.29;102232.06;5015078;28;20037;-70
2023/05/29 00:32:43;;;;;;;6.70;3.70;;;;;;;21.88;43.12;102232.06;5015171;28;20083;-70
2023/05/29 00:35:08;;;;;;;6.82;3.10;;;;;;;21.86;42.92;102232.19;5017240;28;20047;-72
2023/05/29 00:37:34;;;;;;;6.55;3.78;;;;;;;21.87;43.12;102239.19;5016697;28;20034;-71
2023/05/29 00:40:00;;;;;;;5.03;3.20;;;;;;;21.87;43.13;102235.66;5018457;28;20033;-71
2023/05/29 00:42:25;;;;;;;8.13;3.53;;;;;;;21.86;42.80;102245.44;5019402;28;20485;-71
2023/05/29 00:44:50;;;;;;;8.75;3.65;;;;;;;21.85;43.10;102235.78;5004206;28;20026;-71
2023/05/29 00:47:16;;;;;;;6.72;3.30;;;;;;;21.83;43.12;102237.72;5015858;28;20030;-71
2023/05/29 00:49:41;;;;;;;6.28;3.53;;;;;;;21.86;42.78;102239.31;5016449;28;20517;-72
2023/05/29 00:52:10;;;;;;;6.30;3.58;;;;;;;21.86;42.90;102242.78;5007856;28;20117;-70
2023/05/29 00:54:36;;;;;;;6.45;3.25;;;;;;;21.85;42.73;102253.53;5007442;28;20026;-69
2023/05/29 00:57:02;;;;;;;7.93;3.80;;;;;;;21.84;42.67;102246.50;5010667;28;20030;-70
2023/05/29 00:59:32;;;;;;;5.93;3.00;;;;;;;21.83;42.60;102248.31;5007383;28;20049;-70
2023/05/29 01:01:59;;;;;;;6.88;3.45;;;;;;;21.77;42.71;102240.81;5016279;28;20044;-72
2023/05/29 01:04:26;;;;;;;6.20;3.42;;;;;;;21.82;42.48;102251.09;5017084;28;20504;-72
2023/05/29 01:06:52;;;;;;;7.22;3.30;;;;;;;21.83;42.55;102255.44;5019473;28;20484;-72
2023/05/29 01:09:17;;;;;;;7.00;3.50;;;;;;;21.82;42.46;102259.91;5023334;28;20073;-71
2023/05/29 01:12:08;;;;;;;8.60;3.40;;;;;;;21.78;42.38;102254.94;5010107;28;20409;-72
2023/05/29 01:15:01;;;;;;;6.13;3.03;;;;;;;21.80;42.27;102271.59;5017577;28;20034;-70
2023/05/29 01:18:03;;;;;;;7.97;3.40;;;;;;;21.81;42.08;102273.28;5014562;28;20405;-70
2023/05/29 01:21:05;;;;;;;7.28;3.05;;;;;;;21.79;42.18;102272.56;5009896;28;20504;-71
2023/05/29 01:24:02;;;;;;;6.93;3.00;;;;;;;21.77;42.23;102266.53;5007061;28;20036;-72
2023/05/29 01:27:00;;;;;;;7.10;2.92;;;;;;;21.76;42.04;102270.13;5013760;28;20620;-71
2023/05/29 01:29:28;;;;;;;6.82;3.40;;;;;;;21.73;41.98;102261.44;5004604;28;20038;-69
2023/05/29 01:31:55;;;;;;;8.00;2.80;;;;;;;21.76;41.91;102264.81;5014205;28;20033;-71
2023/05/29 01:34:21;;;;;;;6.95;2.72;;;;;;;21.74;41.81;102275.53;5020133;28;20033;-71
2023/05/29 01:36:46;;;;;;;6.10;2.92;;;;;;;21.72;41.96;102270.34;5019401;28;20033;-72
2023/05/29 01:39:12;;;;;;;7.90;2.90;;;;;;;21.73;41.99;102272.06;5004017;28;20076;-71
2023/05/29 01:41:39;;;;;;;6.88;3.10;;;;;;;21.73;41.94;102271.22;5010659;28;20263;-71
2023/05/29 01:44:08;;;;;;;7.30;3.15;;;;;;;21.71;42.02;102268.69;5017465;28;20029;-71
2023/05/29 01:46:35;;;;;;;6.18;2.83;;;;;;;21.72;41.80;102272.16;5023111;28;20056;-72
2023/05/29 01:49:01;;;;;;;8.27;3.05;;;;;;;21.72;41.91;102265.03;5016443;28;20033;-71
2023/05/29 01:51:26;;;;;;;6.65;2.53;;;;;;;21.71;41.85;102268.69;5015885;28;20045;-70
2023/05/29 01:53:51;;;;;;;7.25;2.75;;;;;;;21.72;41.79;102273.00;5008651;28;20041;-71
2023/05/29 01:56:18;;;;;;;9.48;2.67;;;;;;;21.69;41.60;102267.94;5003642;28;20478;-71
2023/05/29 01:58:44;;;;;;;7.25;2.60;;;;;;;21.68;41.69;102263.59;5019836;28;20030;-71
2023/05/29 02:01:10;;;;;;;5.85;2.67;;;;;;;21.70;41.64;102268.78;5018314;28;20045;-71
2023/05/29 02:03:35;;;;;;;6.28;2.88;;;;;;;21.69;41.41;102267.94;5021056;28;20056;-71
2023/05/29 02:06:00;;;;;;;6.57;2.75;;;;;;;21.69;41.57;102265.28;5023241;28;20398;-71
2023/05/29 02:08:26;;;;;;;7.32;3.08;;;;;;;21.70;41.29;102271.44;5004571;28;20042;-71
2023/05/29 02:10:52;;;;;;;6.35;2.75;;;;;;;21.66;41.31;102265.50;5008425;28;20472;-70
2023/05/29 02:13:18;;;;;;;6.55;2.58;;;;;;;21.67;41.28;102261.06;5007651;28;20117;-72
2023/05/29 02:15:43;;;;;;;6.65;2.55;;;;;;;21.68;41.12;102265.38;5012167;28;20470;-71
2023/05/29 02:18:14;;;;;;;7.43;3.10;;;;;;;21.62;41.38;102264.06;5005533;28;20061;-70
2023/05/29 02:20:40;;;;;;;7.50;3.00;;;;;;;21.67;40.95;102269.03;5012096;28;20055;-71
2023/05/29 02:23:10;;;;;;;7.45;2.90;;;;;;;21.64;41.27;102271.91;5018047;28;20481;-70
2023/05/29 02:25:35;;;;;;;6.95;2.80;;;;;;;21.66;41.13;102273.47;5018014;28;20037;-70
2023/05/29 02:28:01;;;;;;;7.45;2.90;;;;;;;21.63;41.14;102271.03;5017510;28;20041;-70
2023/05/29 02:30:28;;;;;;;7.57;2.55;;;;;;;21.62;40.87;102277.31;5014023;28;20115;-72
2023/05/29 02:32:53;;;;;;;6.95;2.70;;;;;;;21.65;41.05;102278.88;5013589;28;20500;-71
2023/05/29 02:35:22;;;;;;;7.07;2.95;;;;;;;21.64;41.07;102279.84;5019135;28;20045;-71
2023/05/29 02:37:47;;;;;;;7.10;2.60;;;;;;;21.61;40.83;102278.25;5014384;28;20094;-71
2023/05/29 02:40:13;;;;;;;7.13;2.60;;;;;;;21.60;41.16;102279.22;5013236;28;20034;-70
2023/05/29 02:42:38;;;;;;;7.72;2.65;;;;;;;21.62;40.93;102279.09;5019549;28;20060;-71
2023/05/29 02:45:04;;;;;;;7.28;2.55;;;;;;;21.62;40.81;102285.28;5022358;28;20502;-73
2023/05/29 02:47:29;;;;;;;7.63;2.63;;;;;;;21.62;40.68;102290.56;5005372;28;20045;-71
2023/05/29 02:49:54;;;;;;;5.85;2.35;;;;;;;21.61;40.71;102288.88;5003498;28;20983;-73
2023/05/29 02:52:20;;;;;;;7.35;2.47;;;;;;;21.59;40.93;102293.47;5009782;28;20135;-71
2023/05/29 02:54:45;;;;;;;7.03;2.65;;;;;;;21.56;40.70;102291.88;5021886;28;20493;-72
2023/05/29 02:57:11;;;;;;;6.72;2.30;;;;;;;21.58;40.60;102293.56;5015894;28;20511;-72
2023/05/29 02:59:37;;;;;;;8.05;2.38;;;;;;;21.59;40.47;102297.88;5012349;28;20112;-72
2023/05/29 03:02:02;;;;;;;6.20;2.35;;;;;;;21.59;40.97;102289.94;5018394;28;20036;-71
2023/05/29 03:04:27;;;;;;;7.03;2.80;;;;;;;21.58;40.55;102293.56;5010672;28;20197;-70
2023/05/29 03:06:54;;;;;;;6.80;2.40;;;;;;;21.58;40.71;102296.22;5017549;28;20109;-72
2023/05/29 03:09:19;;;;;;;7.22;2.35;;;;;;;21.58;40.73;102294.41;5013835;28;20037;-70
2023/05/29 03:11:45;;;;;;;8.55;2.67;;;;;;;21.53;40.95;102283.28;5002608;28;20797;-72
2023/05/29 03:14:10;;;;;;;5.80;2.28;;;;;;;21.57;40.77;102287.44;5015486;28;20116;-72
2023/05/29 03:16:35;;;;;;;7.45;2.50;;;;;;;21.55;40.69;102292.84;5008492;28;20425;-72
2023/05/29 03:19:01;;;;;;;6.82;2.47;;;;;;;21.53;40.54;102292.09;5021298;28;20040;-71
2023/05/29 03:21:26;;;;;;;5.43;1.83;;;;;;;21.56;40.46;102291.88;5021476;28;20041;-71
2023/05/29 03:23:52;;;;;;;6.53;2.45;;;;;;;21.55;40.59;102289.31;5009613;28;20137;-71
2023/05/29 03:26:17;;;;;;;6.13;2.28;;;;;;;21.54;40.35;102283.19;5001844;28;20116;-70
2023/05/29 03:28:42;;;;;;;7.13;2.40;;;;;;;21.54;40.44;102288.47;5011349;28;20033;-71
2023/05/29 03:31:08;;;;;;;7.30;2.38;;;;;;;21.53;40.23;102300.03;5016015;28;20353;-71
2023/05/29 03:33:34;;;;;;;8.82;2.40;;;;;;;21.53;40.32;102299.22;5002298;28;20037;-71
2023/05/29 03:36:00;;;;;;;8.85;2.75;;;;;;;21.51;40.28;102298.47;5002005;28;20238;-70
2023/05/29 03:38:25;;;;;;;8.50;2.33;;;;;;;21.50;40.39;102291.47;5005924;28;20657;-71
2023/05/29 03:40:50;;;;;;;7.67;2.60;;;;;;;21.51;40.25;102301.97;5008283;28;20489;-72
2023/05/29 03:43:16;;;;;;;6.20;2.00;;;;;;;21.52;40.23;102298.38;5012990;28;20290;-71
2023/05/29 03:45:41;;;;;;;6.23;2.23;;;;;;;21.50;40.21;102294.97;5006074;28;20382;-72
2023/05/29 03:48:06;;;;;;;7.65;2.20;;;;;;;21.52;40.17;102308.97;5008908;28;20373;-72
2023/05/29 03:50:31;;;;;;;6.30;2.40;;;;;;;21.49;40.49;102300.38;5001802;28;20548;-71
2023/05/29 03:52:57;;;;;;;6.38;2.28;;;;;;;21.48;40.50;102304.84;5008537;28;20080;-71
2023/05/29 03:55:22;;;;;;;8.73;2.70;;;;;;;21.49;40.07;102310.97;5015782;28;20120;-71
2023/05/29 03:57:48;;;;;;;7.00;2.05;;;;;;;21.52;39.99;102313.41;5014208;28;20041;-71
2023/05/29 04:00:13;;;;;;;6.57;2.40;;;;;;;21.49;40.05;102314.50;5018338;28;20904;-72
2023/05/29 04:02:38;;;;;;;6.85;2.17;;;;;;;21.44;40.15;102308.63;5021136;28;20053;-72
2023/05/29 04:05:06;;;;;;;7.70;2.20;;;;;;;21.44;40.17;102308.63;5001582;28;20057;-73
2023/05/29 04:07:32;;;;;;;5.30;2.10;;;;;;;21.47;40.08;102312.88;5009481;28;20037;-72
2023/05/29 04:09:57;;;;;;;7.88;2.45;;;;;;;21.46;40.04;102321.78;5019089;28;20053;-70
2023/05/29 04:12:23;;;;;;;8.40;2.13;;;;;;;21.44;40.39;102321.88;5009370;28;20068;-71
2023/05/29 04:14:48;;;;;;;8.43;2.30;;;;;;;21.45;40.11;102322.75;5006076;28;20474;-70
2023/05/29 04:17:13;;;;;;;7.73;1.97;;;;;;;21.45;39.92;102330.72;5002496;28;20050;-69
2023/05/29 04:19:38;;;;;;;5.53;1.97;;;;;;;21.44;40.15;102332.50;5019919;28;20262;-72
2023/05/29 04:22:04;;;;;;;7.82;2.40;;;;;;;21.45;40.09;102330.72;5009309;28;20740;-70
2023/05/29 04:24:31;;;;;;;5.80;2.05;;;;;;;21.45;40.12;102330.72;5004751;28;20041;-70
2023/05/29 04:26:57;;;;;;;8.32;2.63;;;;;;;21.45;40.03;102341.31;5014472;28;20073;-72
2023/05/29 04:29:22;;;;;;;10.65;2.85;;;;;;;21.42;40.19;102337.06;5010531;28;20057;-72
2023/05/29 04:31:48;;;;;;;6.65;2.17;;;;;;;21.45;40.29;102341.31;5012014;28;20069;-71
2023/05/29 04:34:16;;;;;;;6.97;2.17;;;;;;;21.44;40.06;102336.97;5014908;28;20034;-70
2023/05/29 04:36:43;;;;;;;8.57;2.72;;;;;;;21.44;39.92;102337.81;5009822;28;20034;-71
2023/05/29 04:39:09;;;;;;;6.88;2.45;;;;;;;21.42;40.32;102333.59;5016227;28;20477;-70
2023/05/29 04:41:35;;;;;;;5.97;2.10;;;;;;;21.45;40.10;102346.63;5023954;28;20040;-71
2023/05/29 04:44:01;;;;;;;8.32;1.98;;;;;;;21.43;39.83;102344.09;5015427;28;20030;-70
2023/05/29 04:46:26;;;;;;;5.75;2.15;;;;;;;21.40;40.08;102339.00;5005225;28;20041;-72
2023/05/29 04:48:55;;;;;;;8.18;2.28;;;;;;;21.42;39.85;102345.03;5010962;28;20371;-71
2023/05/29 04:51:21;;;;;;;8.18;2.40;;;;;;;21.38;40.13;102339.13;5011621;28;20045;-72
2023/05/29 04:53:47;;;;;;;9.95;2.88;;;;;;;21.38;40.01;102341.75;5016432;28;20033;-71
2023/05/29 04:56:13;;;;;;;6.45;1.95;;;;;;;21.38;39.98;102339.13;5018520;28;20030;-72
2023/05/29 04:58:38;;;;;;;6.65;2.20;;;;;;;21.38;40.12;102336.47;5022056;28;20061;-71
2023/05/29 05:01:04;;;;;;;7.80;2.42;;;;;;;21.41;40.07;102345.16;5013685;28;20029;-71
2023/05/29 05:03:34;;;;;;;6.22;2.10;;;;;;;21.37;39.99;102336.56;5014605;28;20148;-71
2023/05/29 05:06:02;;;;;;;8.32;2.40;;;;;;;21.36;39.77;102345.47;5022420;28;20193;-71
2023/05/29 05:08:27;;;;;;;5.28;1.83;;;;;;;21.38;39.86;102340.94;5012293;28;20025;-72
2023/05/29 05:10:52;;;;;;;6.55;2.08;;;;;;;21.37;40.15;102348.00;5016720;28;20030;-71
2023/05/29 05:13:18;;;;;;;6.00;2.40;;;;;;;21.38;39.94;102346.22;5004605;28;20117;-71
2023/05/29 05:15:43;;;;;;;6.25;2.00;;;;;;;21.36;40.10;102348.13;5008874;28;20270;-70
2023/05/29 05:18:08;;;;;;;6.13;2.20;;;;;;;21.37;39.86;102344.53;5010405;28;20128;-70
2023/05/29 05:20:33;;;;;;;6.43;1.80;;;;;;;21.34;40.10;102342.94;5015327;28;20706;-71
2023/05/29 05:22:59;;;;;;;7.80;2.33;;;;;;;21.36;39.88;102356.94;5006755;28;20129;-72
2023/05/29 05:25:25;;;;;;;7.65;2.08;;;;;;;21.36;40.05;102364.03;5016400;28;20255;-71
2023/05/29 05:27:50;;;;;;;7.22;1.92;;;;;;;21.37;39.86;102369.22;5016959;28;20029;-72
2023/05/29 05:30:16;;;;;;;6.82;2.00;;;;;;;21.35;39.95;102363.19;5008153;28;20044;-72
2023/05/29 05:32:41;;;;;;;5.10;1.55;;;;;;;21.32;40.11;102365.22;5004177;28;20030;-71
2023/05/29 05:35:07;;;;;;;5.83;1.63;;;;;;;21.35;40.12;102371.16;5015518;28;20112;-72
2023/05/29 05:37:32;;;;;;;6.53;2.03;;;;;;;21.33;40.30;102386.34;5007761;28;20773;-73
2023/05/29 05:40:00;;;;;;;5.60;1.70;;;;;;;21.34;40.35;102382.72;5008406;28;20230;-71
2023/05/29 05:42:25;;;;;;;7.88;2.13;;;;;;;21.33;40.23;102374.84;5004167;28;20073;-71
2023/05/29 05:44:50;;;;;;;6.18;2.05;;;;;;;21.32;40.10;102379.31;5012538;28;20112;-72
2023/05/29 05:47:16;;;;;;;6.63;2.13;;;;;;;21.34;40.14;102379.22;5013481;28;20034;-72
2023/05/29 05:49:41;;;;;;;5.22;1.60;;;;;;;21.33;39.98;102381.03;5014482;28;20353;-72
2023/05/29 05:52:06;;;;;;;7.00;2.75;;;;;;;21.31;40.06;102374.97;5016422;28;20467;-72
2023/05/29 05:54:31;;;;;;;7.15;2.08;;;;;;;21.31;40.16;102374.97;5003194;28;20116;-72
2023/05/29 05:56:57;;;;;;;6.22;1.60;;;;;;;21.31;40.29;102364.34;5005397;28;20419;-71
2023/05/29 05:59:22;;;;;;;7.68;1.83;;;;;;;21.34;40.01;102369.44;5022903;28;20127;-71
2023/05/29 06:01:47;;;;;;;6.35;2.05;;;;;;;21.28;40.24;102367.22;5013794;28;20037;-73
2023/05/29 06:04:13;;;;;;;5.17;1.70;;;;;;;21.32;40.03;102367.88;5021228;28;20048;-71
2023/05/29 06:06:39;;;;;;;5.60;1.65;;;;;;;21.29;40.13;102362.78;5015761;28;20624;-72
2023/05/29 06:09:04;;;;;;;6.53;2.10;;;;;;;21.30;40.19;102359.16;5006883;28;20088;-72
2023/05/29 06:11:31;;;;;;;5.77;1.67;;;;;;;21.30;40.11;102362.69;5022790;28;20069;-73
2023/05/29 06:13:56;;;;;;;7.45;1.85;;;;;;;21.28;39.67;102364.56;5022904;28;20289;-71
2023/05/29 06:16:22;;;;;;;7.07;2.07;;;;;;;21.31;39.89;102380.25;5007001;28;20923;-72
2023/05/29 06:18:47;;;;;;;6.30;2.00;;;;;;;21.30;40.36;102378.59;5018949;28;20275;-72
2023/05/29 06:21:13;;;;;;;7.37;2.10;;;;;;;21.28;40.31;102377.00;5013772;28;20033;-71
2023/05/29 06:23:38;;;;;;;7.82;2.00;;;;;;;21.30;40.30;102385.69;5004884;28;20315;-72
2023/05/29 06:26:04;;;;;;;6.25;2.10;;;;;;;21.28;40.34;102388.44;5019703;28;20465;-71
2023/05/29 06:28:30;;;;;;;6.32;2.00;;;;;;;21.30;40.35;102390.97;5022238;28;20153;-72
2023/05/29 06:30:55;;;;;;;6.05;1.83;;;;;;;21.28;40.17;102393.75;5012039;28;20034;-71
2023/05/29 06:33:21;;;;;;;9.75;2.13;;;;;;;21.32;40.35;102391.75;5016416;28;20038;-72
2023/05/29 06:35:46;;;;;;;6.55;2.35;;;;;;;21.34;40.39;102390.66;5009412;28;20032;-71
2023/05/29 06:38:13;;;;;;;5.57;1.90;;;;;;;21.38;40.48;102401.91;5013684;28;20037;-71
2023/05/29 06:40:38;;;;;;;6.90;2.28;;;;;;;21.34;40.61;102397.78;5018347;28;20509;-71
2023/05/29 06:43:03;;;;;;;7.95;1.92;;;;;;;21.25;41.17;102388.66;5002512;28;20045;-70
2023/05/29 06:45:29;;;;;;;8.07;2.17;;;;;;;21.27;41.40;102400.03;5013436;28;20091;-70
2023/05/29 06:47:55;;;;;;;5.78;1.83;;;;;;;21.23;41.46;102395.88;5002776;28;20485;-72
2023/05/29 06:50:20;;;;;;;5.82;1.70;;;;;;;21.29;41.69;102402.56;5010439;28;20100;-70
2023/05/29 06:52:45;;;;;;;7.85;2.30;;;;;;;21.36;41.57;102393.19;5002701;28;20552;-70
2023/05/29 06:55:11;;;;;;;8.23;2.10;;;;;;;21.42;41.61;102400.72;5014667;28;20030;-69
2023/05/29 06:57:36;;;;;;;7.63;1.67;;;;;;;21.46;41.56;102404.00;5004778;28;20038;-68
2023/05/29 07:00:05;;;;;;;6.75;1.83;;;;;;;21.42;41.38;102397.25;5014337;28;21221;-71
2023/05/29 07:02:30;;;;;;;6.38;1.80;;;;;;;21.43;41.24;102398.91;5009857;28;20481;-69
2023/05/29 07:04:56;;;;;;;4.75;1.73;;;;;;;21.41;41.58;102403.50;5008341;28;20030;-67
2023/05/29 07:07:21;;;;;;;8.80;2.00;;;;;;;21.40;41.63;102399.16;5007895;28;20668;-68
2023/05/29 07:09:46;;;;;;;6.97;1.93;;;;;;;21.41;41.39;102399.03;5027454;28;20041;-68
2023/05/29 07:12:11;;;;;;;8.10;2.00;;;;;;;21.42;41.35;102394.59;5013732;28;20734;-69
2023/05/29 07:14:37;;;;;;;8.75;2.00;;;;;;;21.44;41.61;102398.81;5017171;28;20293;-69
2023/05/29 07:17:02;;;;;;;6.73;1.77;;;;;;;21.48;41.08;102404.75;5025559;28;20073;-70
2023/05/29 07:19:29;;;;;;;6.15;1.95;;;;;;;21.54;41.21;102402.53;5011318;28;20305;-72
2023/05/29 07:21:54;;;;;;;5.93;1.83;;;;;;;21.55;41.18;102403.38;5008722;28;20033;-70
2023/05/29 07:24:19;;;;;;;4.95;1.48;;;;;;;21.54;41.26;102407.00;5014969;28;20037;-71
2023/05/29 07:26:45;;;;;;;5.93;1.90;;;;;;;21.54;41.28;102409.66;5010227;28;20470;-69
2023/05/29 07:29:11;;;;;;;7.20;1.83;;;;;;;21.54;40.82;102410.50;5016130;28;20041;-68
2023/05/29 07:31:40;;;;;;;6.78;1.60;;;;;;;21.51;40.90;102405.41;5011790;28;20029;-69
2023/05/29 07:34:05;;;;;;;9.90;2.22;;;;;;;21.52;40.97;102409.78;5012472;28;20086;-69
2023/05/29 07:36:31;;;;;;;13.30;2.20;;;;;;;21.54;40.92;102410.50;5011419;28;20041;-68
2023/05/29 07:38:58;;;;;;;7.22;1.92;;;;;;;21.56;41.07;102407.75;5011043;28;20036;-70
2023/05/29 07:41:23;;;;;;;6.57;1.90;;;;;;;21.56;41.11;102413.88;5012690;28;20084;-69
2023/05/29 07:43:51;;;;;;;8.00;1.90;;;;;;;21.60;40.87;102416.31;5011415;28;20033;-70
2023/05/29 07:46:17;;;;;;;6.03;1.88;;;;;;;21.63;40.67;102411.63;5013721;28;20049;-68
2023/05/29 07:48:42;;;;;;;8.23;2.28;;;;;;;21.66;40.88;102422.03;5008377;28;20030;-71
2023/05/29 07:51:10;;;;;;;7.30;2.00;;;;;;;21.63;41.10;102414.28;5012661;28;20512;-71
2023/05/29 07:53:35;;;;;;;4.75;1.88;;;;;;;21.62;40.74;102406.44;5011530;28;20115;-70
2023/05/29 07:56:01;;;;;;;6.57;1.80;;;;;;;21.70;40.75;102425.34;5011980;28;20469;-71
2023/05/29 07:58:26;;;;;;;6.80;1.70;;;;;;;21.69;41.11;102424.47;5012746;28;20030;-70
2023/05/29 08:00:52;;;;;;;8.90;1.73;;;;;;;21.68;40.94;102424.56;5011361;28;20036;-68
2023/05/29 08:03:17;;;;;;;9.00;2.42;;;;;;;21.67;41.04;102415.78;5010665;28;20037;-70
2023/05/29 08:05:42;;;;;;;7.32;1.98;;;;;;;21.73;41.25;102430.41;5006151;28;20034;-71
2023/05/29 08:08:08;;;;;;;7.43;1.88;;;;;;;21.70;41.04;102420.88;5014832;28;20040;-71
2023/05/29 08:10:33;;;;;;;6.30;1.80;;;;;;;21.76;40.51;102430.16;5014932;28;20029;-72
2023/05/29 08:12:58;;;;;;;9.05;1.88;;;;;;;21.80;40.56;102422.84;5014946;28;20045;-72
2023/05/29 08:15:26;;;;;;;7.43;2.15;;;;;;;21.85;40.81;102423.38;5012613;28;20030;-71
2023/05/29 08:17:51;;;;;;;6.72;1.70;;;;;;;21.82;40.92;102428.91;5009005;28;20088;-70
2023/05/29 08:20:16;;;;;;;7.57;1.70;;;;;;;21.83;40.74;102434.09;5015237;28;20062;-73
2023/05/29 08:22:42;;;;;;;5.80;1.75;;;;;;;21.81;41.09;102432.50;5010715;28;20033;-74
2023/05/29 08:25:08;;;;;;;6.80;1.77;;;;;;;21.80;40.70;102430.81;5028160;28;20029;-72
2023/05/29 08:27:33;;;;;;;5.43;1.98;;;;;;;21.85;40.69;102432.16;5017280;28;20029;-73
2023/05/29 08:29:58;;;;;;;8.88;2.10;;;;;;;21.82;40.79;102431.53;5012165;28;20046;-73
2023/05/29 08:32:24;;;;;;;6.63;1.80;;;;;;;21.84;40.70;102426.97;5017009;28;20045;-70
2023/05/29 08:34:49;;;;;;;9.50;2.08;;;;;;;21.82;40.95;102436.84;5014496;28;20040;-72
2023/05/29 08:37:16;;;;;;;8.43;2.22;;;;;;;21.82;40.71;102436.84;5013270;28;20034;-71
2023/05/29 08:39:41;;;;;;;6.35;1.83;;;;;;;21.84;40.76;102445.53;5015386;28;20029;-70
2023/05/29 08:42:17;;;;;;;7.85;2.00;;;;;;;21.81;40.85;102440.47;5013922;28;20041;-71
2023/05/29 08:44:47;;;;;;;8.20;1.88;;;;;;;21.84;40.84;102438.44;5015420;28;20810;-70
2023/05/29 08:47:20;;;;;;;6.95;1.80;;;;;;;21.83;40.77;102430.59;5012662;28;20034;-70
2023/05/29 08:49:50;;;;;;;7.97;1.98;;;;;;;21.84;40.90;102435.81;5017564;28;20040;-73
2023/05/29 08:52:18;;;;;;;7.00;2.20;;;;;;;21.86;40.96;102439.19;5008686;28;20037;-70
2023/05/29 08:54:44;;;;;;;7.15;1.80;;;;;;;21.89;40.68;102451.41;5020138;28;20032;-71
2023/05/29 08:57:13;;;;;;;5.47;1.60;;;;;;;21.85;40.86;102442.78;5009809;28;20040;-71
2023/05/29 08:59:42;;;;;;;5.82;1.92;;;;;;;21.87;40.72;102440.88;5006741;28;20053;-71
2023/05/29 09:02:09;;;;;;;8.65;2.05;;;;;;;21.93;40.98;102452.84;5013027;28;20056;-72
2023/05/29 09:04:34;;;;;;;6.03;1.65;;;;;;;21.96;40.80;102455.28;5005927;28;20026;-68
2023/05/29 09:07:00;;;;;;;6.40;1.80;;;;;;;21.96;40.71;102455.28;5017586;28;20033;-68
2023/05/29 09:09:29;;;;;;;8.05;2.10;;;;;;;21.92;40.98;102445.84;5014000;28;20271;-69
2023/05/29 09:11:56;;;;;;;6.82;1.73;;;;;;;21.95;40.74;102445.63;5009911;28;20117;-69
2023/05/29 09:14:41;;;;;;;7.70;2.17;;;;;;;21.98;41.00;102460.47;5011977;28;20087;-71
2023/05/29 09:17:08;;;;;;;7.20;1.85;;;;;;;21.94;41.04;102449.25;5020733;28;20079;-71
2023/05/29 09:19:34;;;;;;;6.78;1.75;;;;;;;21.94;40.94;102449.25;5012763;28;20537;-69
2023/05/29 09:22:04;;;;;;;7.18;1.95;;;;;;;21.92;40.88;102443.19;5012901;28;20037;-68
2023/05/29 09:24:32;;;;;;;6.22;1.92;;;;;;;21.98;40.62;102455.16;5012699;28;20466;-68
2023/05/29 09:27:00;;;;;;;5.97;1.73;;;;;;;21.94;40.83;102446.59;5012770;28;20117;-69
2023/05/29 09:29:25;;;;;;;6.68;1.77;;;;;;;21.95;40.94;102452.75;5013845;28;20045;-73
2023/05/29 09:31:51;;;;;;;7.00;2.00;;;;;;;22.03;40.87;102453.91;5003187;28;20085;-72
2023/05/29 09:34:16;;;;;;;6.95;1.77;;;;;;;22.02;40.99;102446.03;5018503;28;20040;-72
2023/05/29 09:36:41;;;;;;;6.95;1.73;;;;;;;22.02;40.80;102451.34;5018935;28;20087;-70
2023/05/29 09:39:09;;;;;;;5.00;1.57;;;;;;;22.01;40.95;102441.69;5011974;28;20040;-69
2023/05/29 09:41:42;;;;;;;6.10;1.58;;;;;;;22.01;40.96;102437.22;5003037;28;20271;-73
2023/05/29 09:44:10;;;;;;;5.82;1.50;;;;;;;22.02;41.08;102440.72;5020455;28;20091;-72
2023/05/29 09:46:36;;;;;;;7.18;1.63;;;;;;;22.01;40.98;102439.03;5020104;28;20079;-72
2023/05/29 09:49:03;;;;;;;5.93;1.67;;;;;;;22.01;40.87;102434.56;5014350;28;20046;-70
2023/05/29 09:51:28;;;;;;;8.30;1.88;;;;;;;22.04;41.02;102444.94;5002661;28;20470;-70
2023/05/29 09:53:56;;;;;;;6.70;2.00;;;;;;;22.04;40.93;102438.81;5006438;28;20045;-72
2023/05/29 09:56:25;;;;;;;6.30;1.73;;;;;;;22.03;40.85;102437.97;5013032;28;20032;-72
2023/05/29 09:58:53;;;;;;;4.72;1.73;;;;;;;22.02;41.10;102430.13;5015966;28;20342;-72
2023/05/29 10:01:18;;;;;;;6.85;1.80;;;;;;;22.05;40.66;102441.34;5006308;28;20116;-73
2023/05/29 10:03:44;;;;;;;9.88;2.22;;;;;;;22.05;40.71;102441.34;5013218;28;20094;-70
2023/05/29 10:06:18;;;;;;;6.93;1.40;;;;;;;22.04;40.96;102439.63;5012231;28;20041;-71
2023/05/29 10:08:49;;;;;;;5.95;1.73;;;;;;;22.04;40.52;102446.75;5014874;28;20037;-72
2023/05/29 10:11:23;;;;;;;5.55;1.45;;;;;;;22.01;40.60;102429.25;5021721;28;20038;-72
2023/05/29 10:13:50;;;;;;;;;;;;;;;22.15;39.96;102436.19;5008110;28;20037;-71
2023/05/29 10:16:18;;;;;;;6.22;1.77;;;;;;;22.13;40.12;102432.81;5002573;28;19975;-71
2023/05/29 10:18:49;;;;;;;8.05;1.73;;;;;;;22.09;40.68;102432.19;5002267;28;20037;-72
2023/05/29 10:21:15;;;;;;;8.85;1.75;;;;;;;22.10;40.71;102444.50;5002457;28;20793;-71
2023/05/29 10:23:45;;;;;;;6.25;1.70;;;;;;;22.10;40.89;102435.69;5005514;28;20088;-71
2023/05/29 10:26:26;;;;;;;6.60;1.80;;;;;;;22.08;40.97;102432.31;5014495;28;20029;-75
2023/05/29 10:29:16;;;;;;;7.38;1.90;;;;;;;22.10;40.90;102435.69;5002216;28;20084;-72
2023/05/29 10:32:08;;;;;;;5.57;1.50;;;;;;;22.08;40.91;102430.50;5011253;28;20083;-75
2023/05/29 10:35:00;;;;;;;6.20;1.52;;;;;;;22.08;41.08;102425.19;5010393;28;20030;-70
2023/05/29 10:37:44;;;;;;;6.25;2.05;;;;;;;22.12;41.08;102427.63;5007919;28;20034;-72
2023/05/29 10:40:14;;;;;;;8.43;1.50;;;;;;;22.13;41.01;102418.69;5019324;28;20037;-72
2023/05/29 10:42:48;;;;;;;9.55;1.50;;;;;;;22.12;40.78;102420.50;5007549;28;20655;-69
2023/05/29 10:45:29;;;;;;;7.60;1.52;;;;;;;22.14;41.38;102438.97;5012099;28;20033;-68
2023/05/29 10:47:54;;;;;;;5.30;1.70;;;;;;;22.21;40.68;102430.44;5013764;28;20029;-68
2023/05/29 10:50:41;;;;;;;5.82;1.75;;;;;;;22.22;40.05;102426.84;5011098;28;20045;-73
2023/05/29 10:53:10;;;;;;;7.82;1.88;;;;;;;22.24;39.88;102413.44;5004974;28;20564;-72
2023/05/29 10:55:37;;;;;;;7.50;1.80;;;;;;;22.22;40.44;102425.97;5022245;28;20042;-72
2023/05/29 10:58:34;;;;;;;6.82;1.60;;;;;;;22.21;40.52;102421.63;5021695;28;20464;-72
2023/05/29 11:01:00;;;;;;;5.97;1.73;;;;;;;22.19;40.49;102418.22;4979323;28;20049;-71
2023/05/29 11:03:31;;;;;;;8.98;1.88;;;;;;;22.15;40.58;102411.47;5011032;28;20033;-70
2023/05/29 11:06:04;;;;;;;10.23;2.00;;;;;;;22.15;40.44;102417.63;4999931;28;20096;-72
2023/05/29 11:08:56;;;;;;;10.87;1.70;;;;;;;22.09;40.90;102410.09;5002142;28;20128;-70
2023/05/29 11:11:27;;;;;;;5.05;1.75;;;;;;;22.07;41.01;102423.50;5015665;28;20045;-68
2023/05/29 11:13:55;;;;;;;6.07;1.70;;;;;;;22.03;40.52;102416.72;5005997;28;20073;-68
2023/05/29 11:16:29;;;;;;;6.97;1.70;;;;;;;22.00;41.13;102414.28;5004059;28;21049;-69
2023/05/29 11:18:55;;;;;;;4.93;1.73;;;;;;;21.99;40.82;102407.28;5003200;28;20573;-71
2023/05/29 11:21:31;;;;;;;7.60;2.05;;;;;;;21.99;40.67;102409.09;5007721;28;20042;-68
2023/05/29 11:23:59;;;;;;;5.22;1.60;;;;;;;22.03;40.74;102413.19;5015811;28;20037;-70
2023/05/29 11:26:27;;;;;;;7.22;1.80;;;;;;;22.03;40.72;102400.78;5020146;28;20036;-72